createdAt,value
2023-05-09T00:00:48.281Z,97410.03
2023-05-09T00:03:14.818Z,97405.50
2023-05-09T00:05:41.349Z,97414.13
2023-05-09T00:08:07.761Z,97400.25
2023-05-09T00:10:34.242Z,97398.66
2023-05-09T00:13:00.786Z,97400.50
2023-05-09T00:15:27.279Z,97410.22
2023-05-09T00:17:53.770Z,97410.59
2023-05-09T00:20:20.415Z,97387.72
2023-05-09T00:22:46.935Z,97390.16
2023-05-09T00:25:13.557Z,97408.13
2023-05-09T00:27:40.262Z,97385.97
2023-05-09T00:30:06.990Z,97397.63
2023-05-09T00:32:33.783Z,97400.97
2023-05-09T00:35:00.302Z,97397.47
2023-05-09T00:37:26.769Z,97383.22
2023-05-09T00:39:53.264Z,97378.13
2023-05-09T00:42:19.884Z,97369.50
2023-05-09T00:44:46.368Z,97369.81
2023-05-09T00:47:12.883Z,97385.56
2023-05-09T00:49:39.773Z,97375.91
2023-05-09T00:52:06.182Z,97337.84
2023-05-09T00:54:32.595Z,97380.91
2023-05-09T00:56:59.100Z,97363.78
2023-05-09T00:59:25.639Z,97375.03
2023-05-09T01:01:52.205Z,97375.34
2023-05-09T01:04:18.966Z,97382.00
2023-05-09T01:06:45.528Z,97358.88
2023-05-09T01:09:24.561Z,97361.88
2023-05-09T01:12:03.184Z,97386.63
2023-05-09T01:14:35.587Z,97374.31
2023-05-09T01:17:05.213Z,97362.16
2023-05-09T01:19:34.347Z,97360.78
2023-05-09T01:22:01.070Z,97359.97
2023-05-09T01:24:30.470Z,97377.19
2023-05-09T01:27:04.990Z,97359.75
2023-05-09T01:29:36.715Z,97352.50
2023-05-09T01:32:03.784Z,97356.25
2023-05-09T01:34:30.350Z,97367.88
2023-05-09T01:36:58.091Z,97352.44
2023-05-09T01:39:24.500Z,97335.16
2023-05-09T01:41:51.152Z,97355.81
2023-05-09T01:44:17.666Z,97351.56
2023-05-09T01:46:44.202Z,97329.94
2023-05-09T01:49:10.935Z,97355.06
2023-05-09T01:51:37.500Z,97347.78
2023-05-09T01:54:03.992Z,97352.59
2023-05-09T01:56:30.756Z,97364.75
2023-05-09T01:58:57.218Z,97329.47
2023-05-09T02:01:24.032Z,97350.75
2023-05-09T02:03:51.104Z,97344.09
2023-05-09T02:06:17.600Z,97347.63
2023-05-09T02:08:44.037Z,97334.06
2023-05-09T02:11:13.177Z,97342.13
2023-05-09T02:13:39.648Z,97313.91
2023-05-09T02:16:06.717Z,97321.91
2023-05-09T02:18:33.802Z,97335.63
2023-05-09T02:21:00.642Z,97334.03
2023-05-09T02:23:27.085Z,97325.56
2023-05-09T02:25:53.586Z,97323.13
2023-05-09T02:28:21.094Z,97323.19
2023-05-09T02:30:47.476Z,97321.09
2023-05-09T02:33:13.924Z,97330.78
2023-05-09T02:35:41.325Z,97319.72
2023-05-09T02:38:07.911Z,97329.75
2023-05-09T02:40:34.356Z,97319.00
2023-05-09T02:43:00.751Z,97311.81
2023-05-09T02:45:27.166Z,97327.06
2023-05-09T02:47:53.797Z,97317.34
2023-05-09T02:50:20.308Z,97306.34
2023-05-09T02:52:46.768Z,97306.84
2023-05-09T02:55:13.581Z,97320.59
2023-05-09T02:57:40.139Z,97293.25
2023-05-09T03:00:06.876Z,97298.28
2023-05-09T03:02:34.028Z,97301.50
2023-05-09T03:05:00.491Z,97318.72
2023-05-09T03:07:26.986Z,97287.25
2023-05-09T03:09:53.462Z,97294.22
2023-05-09T03:12:19.840Z,97292.66
2023-05-09T03:14:46.511Z,97306.84
2023-05-09T03:17:13.091Z,97294.53
2023-05-09T03:19:39.541Z,97291.28
2023-05-09T03:22:05.947Z,97305.06
2023-05-09T03:24:32.493Z,97285.09
2023-05-09T03:26:58.880Z,97286.69
2023-05-09T03:29:25.323Z,97278.13
2023-05-09T03:31:51.873Z,97285.63
2023-05-09T03:34:18.361Z,97297.91
2023-05-09T03:36:44.868Z,97302.44
2023-05-09T03:39:11.416Z,97311.06
2023-05-09T03:41:37.826Z,97305.63
2023-05-09T03:44:04.714Z,97306.72
2023-05-09T03:46:31.459Z,97295.41
2023-05-09T03:48:58.015Z,97316.09
2023-05-09T03:51:24.528Z,97293.00
2023-05-09T03:53:51.077Z,97290.63
2023-05-09T03:56:17.462Z,97298.94
2023-05-09T03:58:43.941Z,97287.25
2023-05-09T04:01:10.361Z,97272.25
2023-05-09T04:03:36.908Z,97295.31
2023-05-09T04:06:03.488Z,97301.03
2023-05-09T04:08:30.060Z,97288.97
2023-05-09T04:10:56.489Z,97293.00
2023-05-09T04:13:23.025Z,97331.94
2023-05-09T04:15:49.884Z,97316.03
2023-05-09T04:18:16.387Z,97297.78
2023-05-09T04:20:42.807Z,97273.53
2023-05-09T04:23:09.308Z,97288.34
2023-05-09T04:25:35.781Z,97306.06
2023-05-09T04:28:02.264Z,97300.91
2023-05-09T04:30:28.772Z,97293.09
2023-05-09T04:32:55.259Z,97278.59
2023-05-09T04:35:22.179Z,97299.19
2023-05-09T04:37:49.075Z,97286.06
2023-05-09T04:40:15.512Z,97285.44
2023-05-09T04:42:41.893Z,97291.31
2023-05-09T04:45:08.669Z,97290.06
2023-05-09T04:47:35.132Z,97292.97
2023-05-09T04:50:01.543Z,97278.69
2023-05-09T04:52:28.085Z,97298.28
2023-05-09T04:54:54.559Z,97301.44
2023-05-09T04:57:21.156Z,97290.75
2023-05-09T04:59:47.655Z,97263.75
2023-05-09T05:02:14.124Z,97305.38
2023-05-09T05:04:40.573Z,97279.94
2023-05-09T05:07:07.073Z,97291.47
2023-05-09T05:09:33.459Z,97290.75
2023-05-09T05:12:02.958Z,97266.25
2023-05-09T05:14:30.403Z,97284.69
2023-05-09T05:16:56.813Z,97293.97
2023-05-09T05:19:23.207Z,97289.28
2023-05-09T05:21:49.764Z,97268.22
2023-05-09T05:24:16.195Z,97298.91
2023-05-09T05:26:42.719Z,97280.22
2023-05-09T05:29:09.299Z,97264.78
2023-05-09T05:31:35.815Z,97279.69
2023-05-09T05:34:02.308Z,97276.38
2023-05-09T05:36:28.873Z,97267.09
2023-05-09T05:38:55.405Z,97279.28
2023-05-09T05:41:21.930Z,97277.56
2023-05-09T05:43:48.526Z,97269.47
2023-05-09T05:46:15.065Z,97268.38
2023-05-09T05:48:41.494Z,97263.34
2023-05-09T05:51:07.909Z,97269.75
2023-05-09T05:53:34.266Z,97267.47
2023-05-09T05:56:00.705Z,97262.78
2023-05-09T05:58:27.228Z,97251.63
2023-05-09T06:00:53.726Z,97260.25
2023-05-09T06:03:20.321Z,97260.91
2023-05-09T06:05:47.150Z,97266.44
2023-05-09T06:08:13.626Z,97239.69
2023-05-09T06:10:40.060Z,97239.50
2023-05-09T06:13:06.576Z,97257.22
2023-05-09T06:15:33.029Z,97266.75
2023-05-09T06:17:59.521Z,97256.78
2023-05-09T06:20:26.232Z,97254.28
2023-05-09T06:22:52.716Z,97250.50
2023-05-09T06:25:19.165Z,97247.34
2023-05-09T06:27:45.813Z,97260.09
2023-05-09T06:30:24.695Z,97258.59
2023-05-09T06:32:53.412Z,97257.69
2023-05-09T06:35:19.952Z,97249.47
2023-05-09T06:37:48.432Z,97274.66
2023-05-09T06:40:15.495Z,97234.97
2023-05-09T06:42:42.053Z,97251.69
2023-05-09T06:45:08.835Z,97253.28
2023-05-09T06:47:35.526Z,97240.41
2023-05-09T06:50:02.044Z,97254.06
2023-05-09T06:52:28.530Z,97244.69
2023-05-09T06:54:55.084Z,97237.38
2023-05-09T06:57:21.559Z,97243.00
2023-05-09T06:59:48.064Z,97257.69
2023-05-09T07:02:14.573Z,97232.63
2023-05-09T07:04:41.065Z,97237.44
2023-05-09T07:07:07.728Z,97222.59
2023-05-09T07:09:34.233Z,97251.78
2023-05-09T07:12:00.632Z,97198.16
2023-05-09T07:14:27.084Z,97230.47
2023-05-09T07:16:53.705Z,97233.41
2023-05-09T07:19:21.570Z,97196.94
2023-05-09T07:21:48.083Z,97245.03
2023-05-09T07:24:14.580Z,97223.78
2023-05-09T07:26:41.138Z,97224.63
2023-05-09T07:29:07.609Z,97217.09
2023-05-09T07:31:36.699Z,97211.59
2023-05-09T07:34:03.922Z,97204.13
2023-05-09T07:36:30.429Z,97214.84
2023-05-09T07:38:56.945Z,97214.63
2023-05-09T07:41:23.383Z,97202.81
2023-05-09T07:43:49.748Z,97188.31
2023-05-09T07:46:16.477Z,97181.06
2023-05-09T07:48:43.052Z,97178.75
2023-05-09T07:51:09.579Z,97198.41
2023-05-09T07:53:36.109Z,97194.41
2023-05-09T07:56:02.572Z,97174.19
2023-05-09T07:58:29.086Z,97180.38
2023-05-09T08:00:56.175Z,97159.75
2023-05-09T08:03:22.897Z,97160.84
2023-05-09T08:05:49.576Z,97156.56
2023-05-09T08:08:16.101Z,97149.72
2023-05-09T08:10:42.583Z,97179.38
2023-05-09T08:13:09.007Z,97131.41
2023-05-09T08:15:35.664Z,97162.53
2023-05-09T08:18:02.302Z,97148.09
2023-05-09T08:20:28.762Z,97139.38
2023-05-09T08:22:55.264Z,97139.34
2023-05-09T08:25:21.696Z,97160.28
2023-05-09T08:27:48.280Z,97139.78
2023-05-09T08:30:15.056Z,97124.13
2023-05-09T08:32:41.616Z,97129.66
2023-05-09T08:35:08.315Z,97120.50
2023-05-09T08:37:37.376Z,97107.09
2023-05-09T08:40:04.372Z,97110.63
2023-05-09T08:42:31.011Z,97123.19
2023-05-09T08:44:57.518Z,97127.34
2023-05-09T08:47:23.944Z,97093.88
2023-05-09T08:49:50.502Z,97101.72
2023-05-09T08:52:17.040Z,97121.41
2023-05-09T08:54:43.522Z,97109.97
2023-05-09T08:57:09.902Z,97098.88
2023-05-09T08:59:36.433Z,97106.75
2023-05-09T09:02:05.615Z,97112.59
2023-05-09T09:04:32.151Z,97115.41
2023-05-09T09:06:58.714Z,97109.06
2023-05-09T09:09:25.173Z,97102.44
2023-05-09T09:11:51.559Z,97103.69
2023-05-09T09:14:19.346Z,97109.16
2023-05-09T09:16:45.837Z,97108.88
2023-05-09T09:19:12.976Z,97111.66
2023-05-09T09:21:40.947Z,97075.47
2023-05-09T09:24:07.450Z,97094.97
2023-05-09T09:26:33.925Z,97073.47
2023-05-09T09:29:00.567Z,97078.06
2023-05-09T09:31:27.611Z,97067.44
2023-05-09T09:34:00.888Z,97079.22
2023-05-09T09:36:30.084Z,97094.09
2023-05-09T09:38:57.356Z,97069.06
2023-05-09T09:41:29.815Z,97071.78
2023-05-09T09:43:58.669Z,97063.63
2023-05-09T09:46:25.387Z,97075.38
2023-05-09T09:48:51.821Z,97052.81
2023-05-09T09:51:18.221Z,97050.00
2023-05-09T09:53:44.765Z,97056.72
2023-05-09T09:56:11.274Z,97030.16
2023-05-09T09:58:37.698Z,97040.84
2023-05-09T10:01:06.791Z,97024.75
2023-05-09T10:03:40.228Z,97015.34
2023-05-09T10:06:10.300Z,96990.56
2023-05-09T10:08:36.822Z,97041.72
2023-05-09T10:11:03.434Z,97000.41
2023-05-09T10:13:30.360Z,97007.63
2023-05-09T10:15:56.954Z,96986.75
2023-05-09T10:18:30.137Z,97005.56
2023-05-09T10:20:57.062Z,97017.91
2023-05-09T10:23:24.076Z,97002.09
2023-05-09T10:25:54.699Z,96983.97
2023-05-09T10:28:22.792Z,96985.56
2023-05-09T10:31:05.941Z,96995.56
2023-05-09T10:33:34.653Z,96988.53
2023-05-09T10:36:01.138Z,96968.31
2023-05-09T10:38:27.578Z,96979.31
2023-05-09T10:40:54.038Z,96998.84
2023-05-09T10:43:20.771Z,96967.50
2023-05-09T10:45:47.247Z,96973.50
2023-05-09T10:48:13.713Z,96977.91
2023-05-09T10:50:40.179Z,96970.84
2023-05-09T10:53:09.977Z,96954.94
2023-05-09T10:55:37.069Z,96939.69
2023-05-09T10:58:21.713Z,96943.63
2023-05-09T11:00:48.755Z,96953.66
2023-05-09T11:03:15.233Z,96920.50
2023-05-09T11:05:41.815Z,96939.84
2023-05-09T11:08:17.870Z,96928.44
2023-05-09T11:10:44.445Z,96906.94
2023-05-09T11:13:11.024Z,96897.38
2023-05-09T11:15:48.521Z,96927.91
2023-05-09T11:18:15.295Z,96907.78
2023-05-09T11:20:45.273Z,96889.16
2023-05-09T11:23:11.958Z,96914.63
2023-05-09T11:25:39.037Z,96900.44
2023-05-09T11:28:05.553Z,96880.84
2023-05-09T11:30:38.114Z,96872.75
2023-05-09T11:33:04.669Z,96879.50
2023-05-09T11:35:31.265Z,96887.44
2023-05-09T11:38:01.604Z,96876.47
2023-05-09T11:40:28.453Z,96858.50
2023-05-09T11:42:57.980Z,96881.34
2023-05-09T11:45:28.881Z,96871.91
2023-05-09T11:47:55.412Z,96851.16
2023-05-09T11:50:21.930Z,96855.66
2023-05-09T11:52:48.632Z,96837.09
2023-05-09T11:55:16.265Z,96822.13
2023-05-09T11:57:44.119Z,96815.88
2023-05-09T12:00:10.871Z,96840.38
2023-05-09T12:02:37.498Z,96858.31
2023-05-09T12:05:10.688Z,96814.09
2023-05-09T12:07:37.474Z,96819.72
2023-05-09T12:10:10.769Z,96790.63
2023-05-09T12:12:37.480Z,96781.75
2023-05-09T12:15:07.362Z,96798.91
2023-05-09T12:17:34.366Z,96823.91
2023-05-09T12:20:01.032Z,96795.91
2023-05-09T12:22:27.548Z,96781.97
2023-05-09T12:24:54.115Z,96767.22
2023-05-09T12:27:20.558Z,96760.50
2023-05-09T12:29:47.077Z,96774.56
2023-05-09T12:32:16.727Z,96743.44
2023-05-09T12:34:43.200Z,96761.47
2023-05-09T12:37:19.410Z,96777.03
2023-05-09T12:40:00.065Z,96762.97
2023-05-09T12:42:30.105Z,96766.56
2023-05-09T12:44:56.547Z,96772.06
2023-05-09T12:47:23.186Z,96771.19
2023-05-09T12:49:49.713Z,96754.81
2023-05-09T12:52:16.913Z,96749.41
2023-05-09T12:54:43.371Z,96759.31
2023-05-09T12:57:19.966Z,96741.47
2023-05-09T12:59:46.366Z,96749.16
2023-05-09T13:02:12.805Z,96739.94
2023-05-09T13:04:39.404Z,96734.22
2023-05-09T13:07:08.956Z,96732.91
2023-05-09T13:09:35.493Z,96699.44
2023-05-09T13:12:02.250Z,96711.69
2023-05-09T13:14:28.733Z,96696.00
2023-05-09T13:16:55.255Z,96705.56
2023-05-09T13:19:21.748Z,96695.75
2023-05-09T13:21:48.177Z,96710.19
2023-05-09T13:24:14.605Z,96698.00
2023-05-09T13:26:41.169Z,96688.56
2023-05-09T13:29:07.593Z,96687.84
2023-05-09T13:31:34.023Z,96725.16
2023-05-09T13:34:00.510Z,96684.56
2023-05-09T13:36:26.987Z,96693.94
2023-05-09T13:38:53.424Z,96681.72
2023-05-09T13:41:20.149Z,96671.53
2023-05-09T13:43:46.839Z,96654.88
2023-05-09T13:46:13.289Z,96651.88
2023-05-09T13:48:39.728Z,96655.06
2023-05-09T13:51:06.093Z,96654.91
2023-05-09T13:53:32.536Z,96639.13
2023-05-09T13:55:59.002Z,96643.00
2023-05-09T13:58:25.423Z,96627.50
2023-05-09T14:00:51.866Z,96631.50
2023-05-09T14:03:18.430Z,96633.13
2023-05-09T14:05:45.001Z,96631.50
2023-05-09T14:08:11.443Z,96652.66
2023-05-09T14:10:37.880Z,96618.22
2023-05-09T14:13:04.340Z,96641.19
2023-05-09T14:15:30.851Z,96619.66
2023-05-09T14:17:57.326Z,96619.09
2023-05-09T14:20:23.757Z,96590.72
2023-05-09T14:22:50.193Z,96622.06
2023-05-09T14:25:16.714Z,96598.16
2023-05-09T14:27:43.220Z,96609.22
2023-05-09T14:30:09.899Z,96582.06
2023-05-09T14:32:36.633Z,96631.47
2023-05-09T14:35:03.192Z,96625.66
2023-05-09T14:37:29.762Z,96605.66
2023-05-09T14:39:56.242Z,96579.69
2023-05-09T14:42:22.733Z,96602.19
2023-05-09T14:44:49.533Z,96588.47
2023-05-09T14:47:16.046Z,96598.88
2023-05-09T14:49:42.515Z,96589.81
2023-05-09T14:52:08.972Z,96573.69
2023-05-09T14:54:35.458Z,96554.91
2023-05-09T14:57:02.166Z,96559.34
2023-05-09T14:59:28.653Z,96553.94
2023-05-09T15:01:55.177Z,96545.31
2023-05-09T15:04:21.702Z,96572.44
2023-05-09T15:06:48.191Z,96550.56
2023-05-09T15:09:14.690Z,96558.06
2023-05-09T15:11:47.643Z,96532.50
2023-05-09T15:14:15.155Z,96545.16
2023-05-09T15:16:41.848Z,96538.34
2023-05-09T15:19:08.360Z,96546.91
2023-05-09T15:21:34.899Z,96525.97
2023-05-09T15:24:01.312Z,96534.16
2023-05-09T15:26:27.812Z,96530.88
2023-05-09T15:28:54.395Z,96554.59
2023-05-09T15:31:20.924Z,96542.41
2023-05-09T15:33:48.054Z,96510.22
2023-05-09T15:36:14.632Z,96510.84
2023-05-09T15:38:41.136Z,96522.03
2023-05-09T15:41:07.663Z,96517.00
2023-05-09T15:43:34.222Z,96513.72
2023-05-09T15:46:00.823Z,96487.09
2023-05-09T15:48:27.360Z,96502.47
2023-05-09T15:50:53.960Z,96476.44
2023-05-09T15:53:20.389Z,96494.78
2023-05-09T15:55:46.767Z,96510.22
2023-05-09T15:58:13.249Z,96491.03
2023-05-09T16:00:39.639Z,96470.16
2023-05-09T16:03:06.107Z,96465.94
2023-05-09T16:05:32.692Z,96479.41
2023-05-09T16:07:59.089Z,96481.47
2023-05-09T16:10:25.476Z,96464.22
2023-05-09T16:12:52.040Z,96465.66
2023-05-09T16:15:18.577Z,96474.81
2023-05-09T16:17:45.382Z,96423.41
2023-05-09T16:20:12.144Z,96466.53
2023-05-09T16:22:38.646Z,96433.91
2023-05-09T16:25:05.296Z,96433.44
2023-05-09T16:27:31.841Z,96443.66
2023-05-09T16:29:58.332Z,96436.94
2023-05-09T16:32:24.927Z,96455.97
2023-05-09T16:34:51.563Z,96457.22
2023-05-09T16:37:18.001Z,96446.28
2023-05-09T16:39:44.819Z,96443.53
2023-05-09T16:42:11.522Z,96438.06
2023-05-09T16:44:37.891Z,96430.97
2023-05-09T16:47:04.344Z,96434.38
2023-05-09T16:49:30.921Z,96425.81
2023-05-09T16:51:57.441Z,96422.44
2023-05-09T16:54:23.988Z,96427.22
2023-05-09T16:56:50.532Z,96425.81
2023-05-09T16:59:17.023Z,96439.13
2023-05-09T17:01:43.546Z,96404.44
2023-05-09T17:04:10.166Z,96424.81
2023-05-09T17:06:36.812Z,96408.44
2023-05-09T17:09:03.270Z,96392.66
2023-05-09T17:11:29.766Z,96399.94
2023-05-09T17:13:56.285Z,96404.50
2023-05-09T17:16:22.702Z,96420.38
2023-05-09T17:18:49.245Z,96404.09
2023-05-09T17:21:15.616Z,96391.63
2023-05-09T17:23:42.061Z,96424.09
2023-05-09T17:26:08.659Z,96416.94
2023-05-09T17:28:35.004Z,96403.44
2023-05-09T17:31:01.363Z,96408.31
2023-05-09T17:33:28.308Z,96376.56
2023-05-09T17:35:54.770Z,96400.34
2023-05-09T17:38:21.171Z,96364.44
2023-05-09T17:40:47.592Z,96372.63
2023-05-09T17:43:13.978Z,96405.47
2023-05-09T17:45:40.655Z,96386.81
2023-05-09T17:48:07.407Z,96389.34
2023-05-09T17:50:33.985Z,96380.53
2023-05-09T17:53:00.590Z,96365.84
2023-05-09T17:55:27.211Z,96368.69
2023-05-09T17:57:53.719Z,96381.00
2023-05-09T18:00:20.235Z,96367.81
2023-05-09T18:02:47.111Z,96376.56
2023-05-09T18:05:13.648Z,96363.38
2023-05-09T18:07:40.075Z,96372.03
2023-05-09T18:10:06.994Z,96375.59
2023-05-09T18:12:34.911Z,96372.09
2023-05-09T18:15:02.692Z,96372.78
2023-05-09T18:17:29.231Z,96371.91
2023-05-09T18:19:55.626Z,96372.09
2023-05-09T18:22:22.111Z,96341.44
2023-05-09T18:24:48.629Z,96361.53
2023-05-09T18:27:15.146Z,96340.09
2023-05-09T18:29:41.701Z,96342.06
2023-05-09T18:32:08.137Z,96356.09
2023-05-09T18:34:34.601Z,96360.56
2023-05-09T18:37:01.104Z,96350.31
2023-05-09T18:39:27.662Z,96346.34
2023-05-09T18:41:54.115Z,96337.91
2023-05-09T18:44:20.493Z,96352.91
2023-05-09T18:46:46.969Z,96338.31
2023-05-09T18:49:13.555Z,96341.28
2023-05-09T18:51:39.939Z,96338.03
2023-05-09T18:54:06.582Z,96298.19
2023-05-09T18:56:33.025Z,96349.72
2023-05-09T18:58:59.397Z,96336.22
2023-05-09T19:01:25.928Z,96335.88
2023-05-09T19:03:52.622Z,96339.75
2023-05-09T19:06:19.097Z,96347.75
2023-05-09T19:08:46.106Z,96325.47
2023-05-09T19:11:12.586Z,96336.47
2023-05-09T19:13:39.265Z,96345.41
2023-05-09T19:16:05.880Z,96327.97
2023-05-09T19:18:32.524Z,96311.34
2023-05-09T19:20:59.013Z,96327.16
2023-05-09T19:23:25.641Z,96314.63
2023-05-09T19:25:52.088Z,96315.47
2023-05-09T19:28:18.448Z,96334.88
2023-05-09T19:30:45.427Z,96328.06
2023-05-09T19:33:11.894Z,96327.84
2023-05-09T19:35:38.433Z,96319.81
2023-05-09T19:38:04.990Z,96343.00
2023-05-09T19:40:31.552Z,96356.72
2023-05-09T19:42:58.012Z,96332.72
2023-05-09T19:45:24.521Z,96309.44
2023-05-09T19:47:51.118Z,96329.44
2023-05-09T19:50:17.969Z,96317.94
2023-05-09T19:52:44.613Z,96326.81
2023-05-09T19:55:10.979Z,96315.81
2023-05-09T19:57:37.384Z,96313.78
2023-05-09T20:00:04.164Z,96302.28
2023-05-09T20:02:31.654Z,96322.44
2023-05-09T20:04:58.177Z,96316.88
2023-05-09T20:07:24.655Z,96330.78
2023-05-09T20:09:51.164Z,96313.47
2023-05-09T20:12:17.651Z,96328.75
2023-05-09T20:14:44.246Z,96329.97
2023-05-09T20:17:10.666Z,96326.81
2023-05-09T20:19:37.132Z,96316.59
2023-05-09T20:22:03.591Z,96318.72
2023-05-09T20:24:30.094Z,96326.81
2023-05-09T20:26:56.493Z,96308.34
2023-05-09T20:29:23.829Z,96321.66
2023-05-09T20:31:50.358Z,96322.81
2023-05-09T20:34:16.954Z,96318.34
2023-05-09T20:36:45.039Z,96320.50
2023-05-09T20:39:11.839Z,96303.63
2023-05-09T20:41:38.411Z,96357.53
2023-05-09T20:44:04.914Z,96308.81
2023-05-09T20:46:31.364Z,96306.03
2023-05-09T20:48:57.841Z,96319.13
2023-05-09T20:51:24.426Z,96311.28
2023-05-09T20:53:50.792Z,96331.72
2023-05-09T20:56:17.285Z,96349.03
2023-05-09T20:58:43.815Z,96323.59
2023-05-09T21:01:10.290Z,96322.59
2023-05-09T21:03:36.835Z,96334.41
2023-05-09T21:06:03.756Z,96331.19
2023-05-09T21:08:30.192Z,96349.19
2023-05-09T21:10:56.538Z,96348.09
2023-05-09T21:13:23.027Z,96347.16
2023-05-09T21:15:49.679Z,96309.34
2023-05-09T21:18:16.356Z,96334.53
2023-05-09T21:20:43.039Z,96303.13
2023-05-09T21:23:09.471Z,96300.38
2023-05-09T21:25:36.013Z,96338.34
2023-05-09T21:28:02.452Z,96309.72
2023-05-09T21:30:28.833Z,96302.56
2023-05-09T21:32:55.393Z,96307.84
2023-05-09T21:35:21.961Z,96315.78
2023-05-09T21:37:48.389Z,96315.13
2023-05-09T21:40:14.962Z,96310.25
2023-05-09T21:42:41.580Z,96330.19
2023-05-09T21:45:08.155Z,96292.56
2023-05-09T21:47:34.632Z,96278.47
2023-05-09T21:50:01.176Z,96304.06
2023-05-09T21:52:27.631Z,96317.81
2023-05-09T21:54:53.986Z,96318.47
2023-05-09T21:57:20.418Z,96325.25
2023-05-09T21:59:46.846Z,96307.41
2023-05-09T22:02:13.416Z,96330.56
2023-05-09T22:04:39.983Z,96317.66
2023-05-09T22:07:06.507Z,96321.66
2023-05-09T22:09:33.018Z,96338.38
2023-05-09T22:11:59.563Z,96329.00
2023-05-09T22:14:26.084Z,96307.56
2023-05-09T22:16:52.610Z,96308.41
2023-05-09T22:19:19.094Z,96324.47
2023-05-09T22:21:45.553Z,96317.78
2023-05-09T22:24:12.150Z,96327.47
2023-05-09T22:26:38.590Z,96337.50
2023-05-09T22:29:05.017Z,96348.97
2023-05-09T22:31:31.508Z,96409.13
2023-05-09T22:33:58.124Z,96420.88
2023-05-09T22:36:24.733Z,96391.72
2023-05-09T22:38:51.197Z,96380.53
2023-05-09T22:41:17.798Z,96378.16
2023-05-09T22:43:44.369Z,96359.97
2023-05-09T22:46:10.752Z,96379.75
2023-05-09T22:48:37.219Z,96401.22
2023-05-09T22:51:03.730Z,96396.94
2023-05-09T22:53:30.550Z,96369.06
2023-05-09T22:55:57.044Z,96391.16
2023-05-09T22:58:23.497Z,96383.25
2023-05-09T23:00:50.034Z,96380.50
2023-05-09T23:03:16.701Z,96377.94
2023-05-09T23:05:43.352Z,96377.50
2023-05-09T23:08:09.824Z,96352.41
2023-05-09T23:10:36.184Z,96354.03
2023-05-09T23:13:02.708Z,96348.97
2023-05-09T23:15:29.247Z,96328.75
2023-05-09T23:17:55.888Z,96339.22
2023-05-09T23:20:22.323Z,96382.19
2023-05-09T23:22:48.710Z,96339.09
2023-05-09T23:25:15.091Z,96330.13
2023-05-09T23:27:41.501Z,96323.06
2023-05-09T23:30:08.793Z,96335.03
2023-05-09T23:32:35.280Z,96333.22
2023-05-09T23:35:02.077Z,96324.03
2023-05-09T23:37:28.669Z,96321.66
2023-05-09T23:39:55.105Z,96312.31
2023-05-09T23:42:21.601Z,96310.84
2023-05-09T23:44:48.089Z,96308.63
2023-05-09T23:47:14.531Z,96323.91
2023-05-09T23:49:41.424Z,96305.94
2023-05-09T23:52:07.918Z,96289.72
2023-05-09T23:54:34.404Z,96305.28
2023-05-09T23:57:00.828Z,96330.75
2023-05-09T23:59:27.282Z,96313.59
